Terminal Aerodrome Forecast
Issued by NWS Blacksburg, VA

Current Version | Previous Version | Graphics & Text | Print | Product List | Glossary On
Versions: 1 2 3 4 5 6 7 8 9 10 11 12 13 14 15 16 17 18 19
000
FTUS41 KRNK 191730 AAB
TAFBLF
TAF AMD
KBLF 191730Z 1918/2018 20010KT P6SM BKN060
      TEMPO 1918/1921 4SM -SHRA OVC020
     FM192100 20010KT 3SM -SHRA VCTS BKN060CB
     FM192300 21005KT P6SM BKN060
      TEMPO 1923/1924 4SM -SHRA OVC020
     FM200300 24005KT P6SM VCSH BKN020
     FM201300 28006KT P6SM BKN035=

USA.gov is the U.S. government's official web portal to all federal, state and local government web resources and services.